Time;durP1;ratioP1;P1;durP2;ratioP2;P2;SDS_P1;SDS_P2;PMS_P1;PMS_P2;Temp;Humidity;BMP_temperature;BMP_pressure;BME280_temperature;BME280_humidity;BME280_pressure;Samples;Min_cycle;Max_cycle;Signal;HPM_P1;HPM_P2
2024/04/09 00:02:07;;;;;;;11.60;6.50;;;;;;;13.01;100.00;101345.93;105944;1252;60302;-81
2024/04/09 00:04:35;;;;;;;7.90;6.10;;;;;;;13.04;100.00;101345.59;106074;1257;73956;-79
2024/04/09 00:07:04;;;;;;;13.30;7.40;;;;;;;13.08;100.00;101345.91;105952;1251;62455;-79
2024/04/09 00:09:32;;;;;;;10.50;6.70;;;;;;;13.12;100.00;101348.69;105921;1251;71373;-80
2024/04/09 00:12:00;;;;;;;16.80;7.90;;;;;;;13.15;100.00;101352.86;105980;1256;60507;-80
2024/04/09 00:14:27;;;;;;;10.90;6.20;;;;;;;13.17;100.00;101354.65;106089;1256;60444;-81
2024/04/09 00:16:55;;;;;;;9.70;6.70;;;;;;;13.20;100.00;101348.54;106728;1250;72526;-78
2024/04/09 00:19:24;;;;;;;15.20;6.40;;;;;;;13.22;100.00;101351.77;106119;1251;63702;-82
2024/04/09 00:21:52;;;;;;;13.60;7.30;;;;;;;13.23;100.00;101354.15;105957;1251;71426;-79
2024/04/09 00:24:19;;;;;;;13.80;7.30;;;;;;;13.23;100.00;101359.05;105935;1256;60524;-80
2024/04/09 00:26:46;;;;;;;11.00;6.70;;;;;;;13.22;100.00;101356.45;105859;1250;60319;-79
2024/04/09 00:29:14;;;;;;;8.50;6.60;;;;;;;13.20;100.00;101358.69;105782;1250;72603;-80
2024/04/09 00:31:42;;;;;;;13.60;7.10;;;;;;;13.16;100.00;101357.36;105870;1251;65381;-82
2024/04/09 00:34:10;;;;;;;12.70;7.40;;;;;;;13.12;100.00;101354.63;105940;1256;72712;-80
2024/04/09 00:36:38;;;;;;;9.30;6.50;;;;;;;13.09;100.00;101359.38;106101;1251;60801;-79
2024/04/09 00:39:19;;;;;;;15.00;7.10;;;;;;;13.04;100.00;101359.61;106258;1257;60376;-80
2024/04/09 00:41:47;;;;;;;18.70;6.90;;;;;;;13.00;100.00;101360.02;106655;1251;73313;-79
2024/04/09 00:44:15;;;;;;;15.90;8.10;;;;;;;12.97;100.00;101363.20;106952;1250;62360;-81
2024/04/09 00:46:43;;;;;;;9.70;6.50;;;;;;;12.94;100.00;101366.02;107400;1251;71364;-79
2024/04/09 00:49:10;;;;;;;15.30;6.20;;;;;;;12.92;100.00;101365.27;106535;1253;60710;-79
2024/04/09 00:51:39;;;;;;;11.10;6.60;;;;;;;12.89;100.00;101366.33;106509;1251;60390;-80
2024/04/09 00:54:10;;;;;;;10.50;7.00;;;;;;;12.85;100.00;101366.91;106179;1251;72636;-80
2024/04/09 00:56:38;;;;;;;13.90;6.90;;;;;;;12.80;100.00;101364.38;106087;1254;62973;-80
2024/04/09 00:59:05;;;;;;;12.30;7.10;;;;;;;12.75;100.00;101367.31;106009;1256;71791;-80
2024/04/09 01:01:33;;;;;;;13.00;8.60;;;;;;;12.68;100.00;101370.86;105973;1252;61669;-79
2024/04/09 01:04:00;;;;;;;12.00;7.90;;;;;;;12.63;100.00;101366.59;105918;1256;60515;-81
2024/04/09 01:06:29;;;;;;;13.40;7.10;;;;;;;12.58;100.00;101369.98;105945;1251;73949;-82
2024/04/09 01:08:56;;;;;;;11.00;7.10;;;;;;;12.53;100.00;101367.48;105908;1251;62368;-80
2024/04/09 01:11:24;;;;;;;12.50;7.00;;;;;;;12.48;100.00;101370.23;106016;1255;70196;-79
2024/04/09 01:13:53;;;;;;;17.80;8.40;;;;;;;12.42;100.00;101371.05;106020;1251;61838;-79
2024/04/09 01:16:21;;;;;;;10.70;7.10;;;;;;;12.37;100.00;101371.20;105981;1256;60345;-80
2024/04/09 01:18:48;;;;;;;11.10;7.30;;;;;;;12.31;100.00;101375.36;105933;1251;73825;-78
2024/04/09 01:21:16;;;;;;;10.10;7.10;;;;;;;12.26;100.00;101371.29;106021;1253;63529;-79
2024/04/09 01:23:44;;;;;;;12.10;7.50;;;;;;;12.19;100.00;101370.38;105963;1257;71277;-79
2024/04/09 01:26:14;;;;;;;12.70;7.70;;;;;;;12.14;100.00;101367.34;105839;1257;61750;-79
2024/04/09 01:28:41;;;;;;;9.00;6.40;;;;;;;12.10;100.00;101368.13;106252;1256;60390;-77
2024/04/09 01:31:15;;;;;;;15.40;9.00;;;;;;;12.06;100.00;101371.98;106261;1251;72798;-78
2024/04/09 01:33:43;;;;;;;10.60;7.20;;;;;;;12.03;100.00;101375.66;105866;1256;62458;-78
2024/04/09 01:36:11;;;;;;;9.50;6.80;;;;;;;12.00;100.00;101375.46;105855;1251;73584;-76
2024/04/09 01:38:38;;;;;;;16.20;7.80;;;;;;;11.98;100.00;101375.40;105870;1254;64147;-77
2024/04/09 01:41:08;;;;;;;10.20;5.80;;;;;;;11.96;100.00;101379.17;105923;1251;61320;-80
2024/04/09 01:43:35;;;;;;;16.20;6.30;;;;;;;11.93;100.00;101373.02;106175;1251;73859;-79
2024/04/09 01:46:04;;;;;;;10.70;6.10;;;;;;;11.93;100.00;101375.31;106366;1256;62432;-80
2024/04/09 01:48:32;;;;;;;15.60;6.70;;;;;;;11.94;100.00;101377.54;106143;1251;72483;-79
2024/04/09 01:50:59;;;;;;;7.90;5.60;;;;;;;11.95;100.00;101374.33;106079;1251;61820;-79
2024/04/09 01:53:27;;;;;;;12.10;6.50;;;;;;;11.95;100.00;101376.80;105991;1251;61340;-79
2024/04/09 01:56:02;;;;;;;6.70;5.90;;;;;;;11.96;100.00;101372.89;105921;1256;73794;-81
2024/04/09 01:58:30;;;;;;;;;;;;;;;11.97;100.00;101374.75;105862;1254;62359;-80
2024/04/09 02:01:04;;;;;;;11.40;5.60;;;;;;;11.98;100.00;101374.19;105921;1256;72515;-79
2024/04/09 02:03:32;;;;;;;16.50;6.80;;;;;;;11.97;100.00;101375.62;105892;1256;61848;-78
2024/04/09 02:06:00;;;;;;;13.00;6.90;;;;;;;11.96;100.00;101378.30;105847;1251;61145;-78
2024/04/09 02:08:27;;;;;;;10.80;8.00;;;;;;;11.94;100.00;101375.41;105855;1256;74504;-80
2024/04/09 02:10:54;;;;;;;13.40;7.30;;;;;;;11.92;100.00;101374.52;105897;1255;63548;-79
2024/04/09 02:13:24;;;;;;;16.70;7.00;;;;;;;11.89;100.00;101380.61;105949;1257;71683;-80
2024/04/09 02:15:52;;;;;;;14.50;6.50;;;;;;;11.87;100.00;101378.95;105931;1251;61912;-81
2024/04/09 02:18:19;;;;;;;14.80;7.30;;;;;;;11.84;100.00;101378.58;105911;1255;61208;-79
2024/04/09 02:20:47;;;;;;;9.30;6.80;;;;;;;11.80;100.00;101377.70;105890;1256;74665;-78
2024/04/09 02:23:14;;;;;;;11.50;7.20;;;;;;;11.79;100.00;101384.80;106105;1256;62399;-79
2024/04/09 02:25:43;;;;;;;15.20;8.40;;;;;;;11.77;100.00;101383.13;106065;1251;71527;-79
2024/04/09 02:28:11;;;;;;;16.00;6.80;;;;;;;11.74;100.00;101383.15;106231;1257;61333;-79
2024/04/09 02:30:39;;;;;;;10.60;6.60;;;;;;;11.71;100.00;101384.71;106789;1251;61138;-78
2024/04/09 02:33:06;;;;;;;10.50;7.40;;;;;;;11.68;100.00;101389.42;106695;1251;74729;-80
2024/04/09 02:35:34;;;;;;;13.30;7.40;;;;;;;11.65;100.00;101390.81;106232;1253;62274;-80
2024/04/09 02:38:02;;;;;;;9.80;7.20;;;;;;;11.61;100.00;101390.97;105871;1253;71074;-80
2024/04/09 02:40:29;;;;;;;7.90;6.60;;;;;;;11.57;100.00;101390.64;105875;1251;61203;-81
2024/04/09 02:42:56;;;;;;;15.30;8.50;;;;;;;11.55;100.00;101389.05;105908;1251;61123;-81
2024/04/09 02:45:24;;;;;;;13.50;7.50;;;;;;;11.51;100.00;101388.35;105936;1255;74633;-79
2024/04/09 02:47:51;;;;;;;13.80;8.00;;;;;;;11.46;100.00;101385.27;109678;1251;62739;-79
2024/04/09 02:50:20;;;;;;;12.00;7.60;;;;;;;11.40;100.00;101385.93;109639;1251;72679;-79
2024/04/09 02:52:49;;;;;;;44.70;11.20;;;;;;;11.35;100.00;101388.48;109597;1251;60503;-80
2024/04/09 02:55:19;;;;;;;22.20;8.90;;;;;;;11.32;100.00;101385.48;109653;1251;60076;-79
2024/04/09 02:57:48;;;;;;;11.10;7.40;;;;;;;11.27;100.00;101386.07;109661;1251;74725;-79
2024/04/09 03:00:19;;;;;;;18.90;7.90;;;;;;;11.26;100.00;101390.14;109657;1250;64054;-78
2024/04/09 03:02:51;;;;;;;13.70;8.20;;;;;;;11.23;100.00;101391.54;109526;1251;71726;-77
2024/04/09 03:05:21;;;;;;;11.30;7.70;;;;;;;11.19;100.00;101394.16;109705;1251;64479;-79
2024/04/09 03:07:51;;;;;;;13.00;7.60;;;;;;;11.15;100.00;101394.02;109621;1251;58979;-80
2024/04/09 03:10:19;;;;;;;14.40;8.60;;;;;;;11.12;100.00;101398.38;109422;1250;74713;-79
2024/04/09 03:12:46;;;;;;;14.10;8.00;;;;;;;11.09;100.00;101395.71;109565;1250;62272;-79
2024/04/09 03:15:13;;;;;;;10.80;7.80;;;;;;;11.06;100.00;101399.70;109593;1251;70750;-80
2024/04/09 03:17:41;;;;;;;11.30;7.10;;;;;;;11.03;100.00;101398.63;109598;1251;60745;-80
2024/04/09 03:20:13;;;;;;;11.70;7.40;;;;;;;11.00;100.00;101398.80;109644;1251;59125;-79
2024/04/09 03:22:41;;;;;;;14.80;7.40;;;;;;;10.96;100.00;101399.15;109695;1251;74673;-77
2024/04/09 03:25:09;;;;;;;19.40;8.00;;;;;;;10.94;100.00;101399.42;109594;1250;62798;-79
2024/04/09 03:27:36;;;;;;;11.70;7.50;;;;;;;10.95;100.00;101399.92;109636;1251;72407;-80
2024/04/09 03:30:04;;;;;;;15.30;7.70;;;;;;;10.95;100.00;101401.12;109641;1251;60492;-79
2024/04/09 03:32:31;;;;;;;13.00;7.50;;;;;;;10.95;100.00;101405.84;109587;1251;60105;-79
2024/04/09 03:34:59;;;;;;;14.00;7.60;;;;;;;10.96;100.00;101404.24;109686;1251;74617;-80
2024/04/09 03:37:26;;;;;;;24.10;7.30;;;;;;;10.97;100.00;101407.32;109638;1251;63748;-79
2024/04/09 03:39:54;;;;;;;42.70;10.20;;;;;;;11.00;100.00;101408.42;109617;1253;72758;-79
2024/04/09 03:42:21;;;;;;;20.20;8.90;;;;;;;11.01;100.00;101405.38;109643;1251;60350;-79
2024/04/09 03:44:48;;;;;;;18.00;9.50;;;;;;;11.05;100.00;101404.85;109681;1251;60011;-80
2024/04/09 03:47:16;;;;;;;19.90;8.70;;;;;;;11.11;100.00;101406.11;109650;1251;74686;-80
2024/04/09 03:49:43;;;;;;;23.90;10.10;;;;;;;11.21;100.00;101407.38;109647;1250;63951;-81
2024/04/09 03:52:11;;;;;;;31.50;9.40;;;;;;;11.30;100.00;101413.75;109567;1251;71771;-80
2024/04/09 03:54:38;;;;;;;19.90;8.80;;;;;;;11.39;100.00;101413.29;109651;1251;61710;-80
2024/04/09 03:57:06;;;;;;;18.80;8.90;;;;;;;11.50;100.00;101414.13;109655;1251;59022;-81
2024/04/09 03:59:34;;;;;;;20.70;10.90;;;;;;;11.62;100.00;101414.23;109689;1250;73360;-81
2024/04/09 04:02:01;;;;;;;19.00;8.70;;;;;;;11.73;100.00;101418.90;109624;1251;63652;-79
2024/04/09 04:04:29;;;;;;;24.70;9.60;;;;;;;11.87;100.00;101419.10;109633;1251;73152;-81
2024/04/09 04:06:56;;;;;;;17.90;9.30;;;;;;;11.99;100.00;101420.88;109580;1251;61661;-80
2024/04/09 04:09:23;;;;;;;21.80;9.20;;;;;;;12.11;100.00;101422.89;109821;1250;58984;-80
2024/04/09 04:11:51;;;;;;;21.00;9.00;;;;;;;12.23;100.00;101427.15;109690;1250;73358;-81
2024/04/09 04:14:19;;;;;;;27.00;11.20;;;;;;;12.35;100.00;101429.65;109717;1250;62836;-82
2024/04/09 04:16:46;;;;;;;19.40;10.80;;;;;;;12.47;100.00;101425.67;109621;1250;72912;-81
2024/04/09 04:19:16;;;;;;;17.90;10.00;;;;;;;12.62;100.00;101425.74;109619;1251;61666;-81
2024/04/09 04:21:43;;;;;;;22.80;9.70;;;;;;;12.77;100.00;101424.20;109754;1250;59019;-80
2024/04/09 04:24:12;;;;;;;19.30;10.50;;;;;;;12.96;100.00;101424.37;109595;1250;74678;-78
2024/04/09 04:26:40;;;;;;;35.60;11.20;;;;;;;13.19;100.00;101424.46;109650;1250;63577;-81
2024/04/09 04:29:10;;;;;;;18.30;10.40;;;;;;;13.41;100.00;101425.33;109715;1250;71413;-82
2024/04/09 04:31:37;;;;;;;37.00;10.40;;;;;;;13.61;100.00;101424.48;109583;1250;60515;-81
2024/04/09 04:34:04;;;;;;;28.40;10.10;;;;;;;13.80;100.00;101425.94;109702;1250;59273;-80
2024/04/09 04:36:32;;;;;;;25.50;10.40;;;;;;;13.98;100.00;101428.52;109703;1250;74654;-80
2024/04/09 04:39:00;;;;;;;24.10;9.30;;;;;;;14.18;100.00;101429.75;109719;1250;62245;-82
2024/04/09 04:41:27;;;;;;;21.90;9.60;;;;;;;14.43;100.00;101428.55;109783;1250;73071;-82
2024/04/09 04:43:55;;;;;;;22.30;9.10;;;;;;;14.72;100.00;101428.17;109766;1250;61654;-81
2024/04/09 04:46:23;;;;;;;32.90;10.10;;;;;;;15.02;100.00;101424.83;109755;1250;60032;-82
2024/04/09 04:48:50;;;;;;;27.30;10.30;;;;;;;15.31;100.00;101425.00;109750;1250;73429;-82
2024/04/09 04:51:18;;;;;;;28.80;10.60;;;;;;;15.60;100.00;101430.27;109751;1250;64396;-81
2024/04/09 04:53:45;;;;;;;25.30;9.70;;;;;;;15.89;100.00;101425.46;109677;1250;71453;-82
2024/04/09 04:56:12;;;;;;;65.40;12.20;;;;;;;16.23;100.00;101429.12;109698;1250;60379;-81
2024/04/09 04:58:40;;;;;;;41.10;11.70;;;;;;;16.65;100.00;101422.52;109659;1250;59993;-81
2024/04/09 05:01:09;;;;;;;59.10;12.50;;;;;;;17.19;100.00;101424.08;109643;1250;74630;-81
2024/04/09 05:03:37;;;;;;;75.60;15.20;;;;;;;17.80;100.00;101427.02;109624;1250;62056;-80
2024/04/09 05:06:06;;;;;;;42.30;13.20;;;;;;;18.40;100.00;101423.23;109595;1250;74606;-81
2024/04/09 05:08:33;;;;;;;26.60;9.50;;;;;;;18.97;100.00;101421.08;109706;1250;60392;-82
2024/04/09 05:11:08;;;;;;;37.70;11.00;;;;;;;19.56;100.00;101422.58;109681;1251;58931;-84
2024/04/09 05:13:37;;;;;;;29.20;11.50;;;;;;;20.14;100.00;101421.86;109719;1250;74631;-81
2024/04/09 05:16:04;;;;;;;25.10;9.70;;;;;;;20.65;100.00;101424.43;109738;1250;62406;-81
2024/04/09 05:18:31;;;;;;;23.60;9.30;;;;;;;21.13;96.77;101425.62;109737;1250;71178;-83
2024/04/09 05:20:59;;;;;;;18.50;8.80;;;;;;;21.62;88.73;101424.65;109628;1253;60509;-80
2024/04/09 05:23:27;;;;;;;24.00;10.50;;;;;;;22.13;82.20;101428.70;109811;1250;58836;-82
2024/04/09 05:25:55;;;;;;;28.20;9.30;;;;;;;22.64;77.13;101424.53;109744;1250;74693;-82
2024/04/09 05:28:22;;;;;;;22.20;10.10;;;;;;;23.11;70.69;101424.88;109734;1250;63573;-81
2024/04/09 05:30:50;;;;;;;25.70;9.80;;;;;;;23.55;63.93;101421.38;109743;1250;71214;-81
2024/04/09 05:33:17;;;;;;;23.90;9.60;;;;;;;23.99;58.95;101422.59;109632;1250;60138;-81
2024/04/09 05:35:45;;;;;;;21.70;10.30;;;;;;;24.42;55.57;101419.78;109736;1250;60369;-83
2024/04/09 05:38:12;;;;;;;19.90;10.00;;;;;;;24.74;50.01;101418.97;109728;1250;74895;-81
2024/04/09 05:40:39;;;;;;;30.60;9.50;;;;;;;25.00;47.38;101424.05;109795;1250;64592;-83
2024/04/09 05:43:07;;;;;;;26.60;11.70;;;;;;;25.22;47.63;101421.05;109700;1251;73112;-82
2024/04/09 05:45:34;;;;;;;32.40;12.80;;;;;;;25.45;47.93;101424.50;109739;1250;61519;-81
2024/04/09 05:48:01;;;;;;;34.80;12.40;;;;;;;25.73;46.43;101420.55;109757;1250;59278;-81
2024/04/09 05:50:29;;;;;;;26.10;11.70;;;;;;;25.97;45.50;101422.48;109753;1250;74832;-82
2024/04/09 05:52:58;;;;;;;23.70;12.80;;;;;;;26.24;44.47;101423.45;109756;1250;63108;-81
2024/04/09 05:55:25;;;;;;;29.40;13.70;;;;;;;26.49;44.06;101426.52;109653;1250;74956;-83
2024/04/09 05:57:53;;;;;;;29.60;13.10;;;;;;;26.70;43.64;101424.79;109711;1250;60110;-81
2024/04/09 06:00:21;;;;;;;34.20;14.20;;;;;;;26.87;43.46;101419.89;109684;1250;60053;-83
2024/04/09 06:02:49;;;;;;;24.30;12.40;;;;;;;27.04;41.81;101419.48;109778;1250;74668;-80
2024/04/09 06:05:17;;;;;;;38.30;13.70;;;;;;;27.14;40.95;101425.95;109746;1250;63859;-81
2024/04/09 06:07:45;;;;;;;36.80;13.60;;;;;;;27.17;40.64;101423.70;109721;1250;71226;-81
2024/04/09 06:10:15;;;;;;;32.80;13.40;;;;;;;27.32;41.10;101427.05;109694;1250;61224;-82
2024/04/09 06:12:42;;;;;;;29.20;13.00;;;;;;;27.48;39.95;101426.16;109676;1250;60990;-81
2024/04/09 06:15:10;;;;;;;34.70;14.50;;;;;;;27.64;40.40;101429.16;109709;1251;75042;-83
2024/04/09 06:17:38;;;;;;;34.90;14.00;;;;;;;27.84;39.70;101431.55;109764;1250;62998;-82
2024/04/09 06:20:06;;;;;;;26.40;13.10;;;;;;;28.03;39.27;101431.68;109746;1250;72661;-82
2024/04/09 06:22:47;;;;;;;34.90;13.80;;;;;;;28.16;38.59;101431.27;109581;1251;61008;-82
2024/04/09 06:25:24;;;;;;;30.50;12.90;;;;;;;28.32;38.26;101427.73;109726;1250;60613;-82
2024/04/09 06:27:51;;;;;;;30.90;13.00;;;;;;;28.49;37.94;101427.07;109716;1250;73543;-83
2024/04/09 06:30:19;;;;;;;29.70;12.00;;;;;;;28.64;36.63;101431.56;109641;1250;64784;-80
2024/04/09 06:32:50;;;;;;;17.90;10.90;;;;;;;28.63;36.58;101431.10;109662;1251;72511;-82
2024/04/09 06:35:19;;;;;;;23.60;11.10;;;;;;;28.67;36.45;101431.31;109707;1250;60088;-82
2024/04/09 06:37:46;;;;;;;31.80;11.50;;;;;;;28.78;35.72;101432.16;109766;1250;58940;-82
2024/04/09 06:40:14;;;;;;;22.10;10.70;;;;;;;28.77;35.41;101434.56;109666;1250;75065;-82
2024/04/09 06:42:41;;;;;;;29.60;10.20;;;;;;;28.74;35.63;101433.16;109755;1250;64376;-81
2024/04/09 06:45:09;;;;;;;28.60;11.40;;;;;;;28.77;35.40;101432.69;109727;1250;71484;-83
2024/04/09 06:47:37;;;;;;;27.70;10.80;;;;;;;28.84;34.86;101427.44;109698;1250;60100;-83
2024/04/09 06:50:04;;;;;;;20.90;9.60;;;;;;;28.97;34.54;101430.11;109793;1250;61870;-84
2024/04/09 06:52:32;;;;;;;30.70;10.40;;;;;;;29.14;34.47;101428.31;109746;1250;75701;-83
2024/04/09 06:54:59;;;;;;;22.30;8.90;;;;;;;29.34;34.59;101426.65;109725;1250;65701;-84
2024/04/09 06:57:27;;;;;;;35.10;10.60;;;;;;;29.68;33.94;101426.90;109701;1250;71213;-82
2024/04/09 06:59:54;;;;;;;26.00;11.20;;;;;;;29.97;33.58;101427.02;109646;1251;59392;-82
2024/04/09 07:02:22;;;;;;;22.30;9.20;;;;;;;30.31;33.00;101427.52;109698;1250;60167;-83
2024/04/09 07:04:49;;;;;;;33.70;10.90;;;;;;;30.55;32.33;101425.02;109641;1251;76484;-84
2024/04/09 07:07:17;;;;;;;22.40;9.60;;;;;;;30.68;32.07;101429.48;109671;1250;63814;-84
2024/04/09 07:09:44;;;;;;;26.60;10.00;;;;;;;30.89;31.82;101425.52;109674;1250;71615;-84
2024/04/09 07:12:12;;;;;;;26.10;10.50;;;;;;;31.11;31.52;101416.41;109631;1251;59787;-83
2024/04/09 07:14:39;;;;;;;28.80;11.30;;;;;;;31.31;30.56;101418.02;109641;1250;61071;-83
2024/04/09 07:17:07;;;;;;;28.90;10.10;;;;;;;31.34;30.05;101415.27;109452;1250;73989;-83
2024/04/09 07:19:35;;;;;;;16.50;9.70;;;;;;;31.44;29.88;101414.36;109637;1250;63183;-85
2024/04/09 07:22:02;;;;;;;21.10;10.00;;;;;;;31.50;29.85;101413.77;109470;1250;72122;-82
2024/04/09 07:24:33;;;;;;;19.20;8.00;;;;;;;31.66;29.87;101410.89;109596;1250;62158;-82
2024/04/09 07:27:02;;;;;;;14.90;7.10;;;;;;;31.74;29.14;101413.09;109635;1250;58943;-81
2024/04/09 07:29:31;;;;;;;17.00;7.20;;;;;;;31.70;28.38;101410.05;109593;1250;76397;-82
2024/04/09 07:31:58;;;;;;;12.80;7.10;;;;;;;31.71;28.72;101410.60;109649;1251;63143;-84
2024/04/09 07:34:25;;;;;;;16.80;8.00;;;;;;;31.92;28.76;101411.88;109657;1250;71286;-83
2024/04/09 07:36:53;;;;;;;13.20;7.20;;;;;;;32.17;28.91;101413.45;109635;1250;61142;-84
2024/04/09 07:39:22;;;;;;;13.10;6.10;;;;;;;32.32;29.04;101412.41;109673;1250;62252;-81
2024/04/09 07:41:49;;;;;;;16.20;6.10;;;;;;;32.39;28.69;101409.21;109637;1250;74778;-85
2024/04/09 07:44:18;;;;;;;12.80;5.20;;;;;;;32.44;28.28;101411.05;109725;1250;63327;-83
2024/04/09 07:46:49;;;;;;;11.70;5.30;;;;;;;32.52;28.38;101408.64;109654;1250;74297;-82
2024/04/09 07:49:17;;;;;;;10.90;4.40;;;;;;;32.54;27.89;101405.17;109634;1250;60000;-82
2024/04/09 07:51:47;;;;;;;14.10;4.70;;;;;;;32.34;27.41;101402.35;109759;1256;59398;-81
2024/04/09 07:54:14;;;;;;;7.70;3.70;;;;;;;32.21;27.21;101402.70;109724;1250;76575;-83
2024/04/09 07:56:42;;;;;;;14.00;4.20;;;;;;;32.23;27.14;101401.52;109779;1250;63917;-83
2024/04/09 07:59:09;;;;;;;10.20;3.60;;;;;;;32.46;26.88;101399.36;109660;1250;74546;-81
2024/04/09 08:01:37;;;;;;;7.30;3.90;;;;;;;32.68;26.64;101396.30;109639;1252;58909;-82
2024/04/09 08:04:04;;;;;;;6.70;4.20;;;;;;;32.79;26.31;101397.10;109651;1250;60482;-80
2024/04/09 08:06:33;;;;;;;9.10;3.40;;;;;;;32.87;26.41;101395.86;109655;1250;73478;-81
2024/04/09 08:09:01;;;;;;;9.40;4.10;;;;;;;32.91;25.82;101390.83;109626;1250;65168;-81
2024/04/09 08:11:29;;;;;;;9.90;3.50;;;;;;;32.90;25.65;101390.54;109689;1250;72074;-82
2024/04/09 08:13:57;;;;;;;6.70;3.70;;;;;;;32.97;25.25;101387.64;109630;1251;61075;-81
2024/04/09 08:16:25;;;;;;;8.40;3.80;;;;;;;32.94;25.62;101386.95;109657;1250;59000;-82
2024/04/09 08:18:52;;;;;;;7.30;3.40;;;;;;;32.88;25.33;101384.91;109636;1250;76424;-81
2024/04/09 08:21:20;;;;;;;8.20;3.60;;;;;;;32.77;25.53;101381.79;109699;1250;64082;-82
2024/04/09 08:23:49;;;;;;;8.30;3.30;;;;;;;32.76;25.96;101380.16;109616;1250;70753;-82
2024/04/09 08:26:16;;;;;;;4.50;2.80;;;;;;;32.96;25.15;101380.48;109649;1250;62560;-81
2024/04/09 08:28:44;;;;;;;7.90;3.10;;;;;;;33.07;25.37;101379.23;109683;1250;61949;-83
2024/04/09 08:31:17;;;;;;;4.80;2.20;;;;;;;33.00;24.90;101374.80;109656;1250;72830;-80
2024/04/09 08:33:45;;;;;;;4.80;1.80;;;;;;;32.78;24.98;101375.29;109714;1250;63984;-80
2024/04/09 08:36:12;;;;;;;5.60;2.30;;;;;;;32.55;24.99;101373.91;109638;1250;73262;-82
2024/04/09 08:38:40;;;;;;;6.60;2.10;;;;;;;32.28;25.55;101369.98;109652;1253;58918;-82
2024/04/09 08:41:09;;;;;;;4.10;1.90;;;;;;;32.07;25.85;101371.88;109781;1250;59952;-80
2024/04/09 08:43:42;;;;;;;7.50;2.10;;;;;;;31.79;25.37;101366.05;109694;1250;76726;-84
2024/04/09 08:46:18;;;;;;;3.40;1.30;;;;;;;31.43;25.57;101366.93;109666;1250;62163;-82
2024/04/09 08:48:46;;;;;;;5.70;1.80;;;;;;;31.05;25.65;101366.25;109524;1250;72450;-80
2024/04/09 08:51:16;;;;;;;2.30;1.60;;;;;;;30.69;26.66;101367.43;109581;1251;60386;-79
2024/04/09 08:53:45;;;;;;;2.80;1.10;;;;;;;30.39;26.83;101372.60;109703;1250;61067;-80
2024/04/09 08:56:15;;;;;;;4.20;1.10;;;;;;;30.11;26.57;101372.98;109578;1250;76959;-80
2024/04/09 08:58:45;;;;;;;1.60;1.40;;;;;;;29.80;26.66;101365.30;109749;1250;63724;-78
2024/04/09 09:01:28;;;;;;;2.70;0.90;;;;;;;29.57;26.74;101362.83;109632;1250;71355;-81
2024/04/09 09:03:56;;;;;;;5.20;1.40;;;;;;;29.39;27.28;101361.79;109592;1251;60019;-79
2024/04/09 09:06:24;;;;;;;2.10;1.60;;;;;;;29.22;27.59;101360.14;109737;1250;60862;-80
2024/04/09 09:08:51;;;;;;;3.00;1.10;;;;;;;29.14;28.17;101355.05;109610;1250;75836;-81
2024/04/09 09:11:23;;;;;;;2.60;1.40;;;;;;;29.19;28.50;101352.77;109770;1250;62434;-82
2024/04/09 09:13:51;;;;;;;4.30;1.60;;;;;;;29.44;28.13;101348.31;109719;1250;71892;-82
2024/04/09 09:16:18;;;;;;;2.60;1.00;;;;;;;29.69;27.58;101350.14;109596;1251;60994;-80
2024/04/09 09:18:45;;;;;;;3.00;1.20;;;;;;;29.82;27.42;101346.33;109763;1250;60570;-81
2024/04/09 09:21:15;;;;;;;3.90;1.40;;;;;;;29.81;27.30;101344.95;109748;1250;74455;-81
2024/04/09 09:23:43;;;;;;;2.60;1.50;;;;;;;29.70;27.82;101346.55;109753;1250;63603;-80
2024/04/09 09:26:11;;;;;;;2.90;1.50;;;;;;;29.58;28.09;101343.48;109728;1250;71141;-77
2024/04/09 09:28:39;;;;;;;4.60;1.70;;;;;;;29.45;27.57;101342.99;109745;1250;59205;-80
2024/04/09 09:31:06;;;;;;;3.50;1.90;;;;;;;29.30;27.91;101337.01;109708;1249;61175;-79
2024/04/09 09:33:34;;;;;;;2.00;1.60;;;;;;;29.10;28.06;101335.73;109624;1249;76490;-79
2024/04/09 09:36:01;;;;;;;4.20;1.50;;;;;;;28.84;27.96;101334.15;109762;1250;62793;-80
2024/04/09 09:38:28;;;;;;;3.30;1.70;;;;;;;28.63;28.00;101331.67;109737;1249;71170;-80
2024/04/09 09:41:00;;;;;;;4.40;1.90;;;;;;;28.47;28.18;101328.90;109637;1253;62030;-80
2024/04/09 09:46:45;;;;;;;2.50;1.50;;;;;;;28.27;29.61;101324.38;104117;1282;603702;-79
2024/04/09 09:49:13;;;;;;;4.00;1.70;;;;;;;28.25;28.80;101325.76;107116;1270;59654;-81
2024/04/09 09:51:45;;;;;;;1.60;1.50;;;;;;;28.48;28.82;101320.70;105412;1272;60575;-79
2024/04/09 09:54:12;;;;;;;3.00;1.70;;;;;;;28.74;27.92;101320.98;104937;1272;72656;-83
2024/04/09 09:56:39;;;;;;;2.80;1.60;;;;;;;28.84;27.70;101319.16;104947;1270;63971;-83
2024/04/09 09:59:06;;;;;;;3.60;1.50;;;;;;;28.84;27.55;101319.45;104783;1271;213462;-81
2024/04/09 10:01:33;;;;;;;4.10;1.90;;;;;;;28.83;27.55;101319.73;104974;1264;60162;-80
2024/04/09 10:04:03;;;;;;;2.30;1.20;;;;;;;28.84;27.10;101318.91;105041;1263;61178;-82
2024/04/09 10:06:30;;;;;;;4.00;1.70;;;;;;;28.84;27.39;101319.57;104980;1269;73094;-80
2024/04/09 10:08:57;;;;;;;3.80;1.60;;;;;;;28.88;27.59;101320.11;104991;1264;62986;-81
2024/04/09 10:11:24;;;;;;;4.10;1.70;;;;;;;28.91;28.83;101319.20;104989;1269;73888;-81
2024/04/09 10:13:51;;;;;;;4.10;1.80;;;;;;;28.95;27.87;101314.99;105220;1269;61066;-83
2024/04/09 10:16:18;;;;;;;2.50;1.60;;;;;;;28.97;27.47;101311.48;105129;1270;60494;-80
2024/04/09 10:18:46;;;;;;;3.90;1.60;;;;;;;29.03;27.72;101311.27;104903;1269;72781;-82
2024/04/09 10:21:16;;;;;;;5.30;1.60;;;;;;;29.09;27.84;101307.98;104970;1269;62630;-81
2024/04/09 10:23:42;;;;;;;2.80;1.50;;;;;;;29.12;27.41;101301.81;104885;1272;71707;-83
2024/04/09 10:26:09;;;;;;;3.50;1.80;;;;;;;29.11;27.46;101301.35;105669;1259;60427;-79
2024/04/09 10:28:42;;;;;;;4.60;1.10;;;;;;;29.14;28.30;101302.15;105786;1254;60583;-82
2024/04/09 10:31:09;;;;;;;4.10;1.60;;;;;;;29.13;28.86;101301.15;105493;1257;73729;-80
2024/04/09 10:33:38;;;;;;;3.50;2.10;;;;;;;29.04;27.48;101299.65;105723;1260;64205;-81
2024/04/09 10:36:06;;;;;;;6.50;1.80;;;;;;;28.84;28.13;101300.58;105697;1254;72204;-81
2024/04/09 10:38:37;;;;;;;6.50;2.30;;;;;;;28.71;28.51;101297.08;105681;1259;61541;-81
2024/04/09 10:41:04;;;;;;;2.40;1.50;;;;;;;28.85;29.77;101296.11;105514;1260;60520;-81
2024/04/09 10:43:36;;;;;;;7.20;1.90;;;;;;;28.99;28.94;101292.67;105679;1258;72661;-85
2024/04/09 10:46:04;;;;;;;3.80;1.40;;;;;;;29.08;28.66;101290.75;105695;1260;64002;-83
2024/04/09 10:48:41;;;;;;;2.00;1.60;;;;;;;29.16;27.82;101289.74;105665;1254;72604;-82
2024/04/09 10:51:09;;;;;;;4.90;1.80;;;;;;;29.42;29.38;101285.35;106048;1259;61530;-82
2024/04/09 10:53:37;;;;;;;1.80;1.40;;;;;;;29.78;29.04;101280.29;105779;1259;60515;-83
2024/04/09 10:56:05;;;;;;;2.80;1.50;;;;;;;30.15;27.87;101274.23;105785;1256;74106;-82
2024/04/09 10:58:36;;;;;;;2.30;1.50;;;;;;;30.57;27.44;101274.20;105572;1268;64330;-79
2024/04/09 11:01:05;;;;;;;2.80;1.60;;;;;;;30.92;26.72;101268.98;105590;1257;72128;-82
2024/04/09 11:03:33;;;;;;;3.20;1.60;;;;;;;31.25;26.58;101264.63;105693;1259;60530;-81
2024/04/09 11:06:01;;;;;;;5.70;1.40;;;;;;;31.62;26.61;101266.96;105640;1255;60574;-80
2024/04/09 11:08:30;;;;;;;2.30;1.50;;;;;;;31.99;25.87;101265.41;105626;1259;74931;-80
2024/04/09 11:11:00;;;;;;;4.40;2.10;;;;;;;32.29;25.99;101262.58;105688;1260;61942;-80
2024/04/09 11:13:31;;;;;;;2.70;1.80;;;;;;;32.52;25.37;101259.81;105787;1258;73777;-77
2024/04/09 11:15:58;;;;;;;6.70;2.20;;;;;;;32.73;25.40;101260.32;105887;1260;60450;-84